Palmer, AK (99645)

11:20 PM AKDT on July 26, 2017 (GMT -0800)
Gold-Key Estates | | Change Station

Elev 203 ft 61.62 °N, 149.10 °W | Updated 9 seconds ago

Overcast
Overcast
59.7 °F
Feels Like 59.7 °F
N
0.0
Wind Variable Wind from SSW
Gusts 0.0 mph

Today
High -- | Low -- °F
--% Chance of Precip.
Yesterday
High -- | Low -- °F
Precip. -- in
Pressure 29.86 in
Visibility 10.0 miles
Clouds Scattered Clouds 2400 ft
Overcast 10000 ft
Dew Point 57 °F
Humidity 90%
Rainfall 0.00 in
Snow Depth Not available.
5:11 AM 10:52 PM
Waxing Crescent, 19% visible
METAR PAAQ 270653Z AUTO 00000KT 10SM SCT024 OVC100 16/14 A2986 RMK AO2 SLP112 T01560139 TSNO
Pressure 29.86 in
Visibility 10.0 miles
Clouds Scattered Clouds 2400 ft
Overcast 10000 ft
Dew Point 57 °F
Humidity 90%
Rainfall 0.00 in
Snow Depth Not available.
5:11 AM 10:52 PM
Waxing Crescent, 19% visible
METAR PAAQ 270653Z AUTO 00000KT 10SM SCT024 OVC100 16/14 A2986 RMK AO2 SLP112 T01560139 TSNO

Get Severe Weather Alerts

Thanks for signing up!

Be on the lookout for a verification email in your inbox.

You'll start receiving the daily forecast at 6 AM.

×

10-Day Weather Forecast

Almanac

Astronomy

Jul. 26, 2017 Rise Set
Actual Time
Civil Twilight
Nautical Twilight
Astronomical Twilight
Moon
Length of Visible Light
Length of Day
Tomorrow will be .
, % of the Moon is Illuminated

Today's Extremes

State Highs State Lows

Community

WunderPhotos

Category 6

Welcome to Category 6. This is the collective home for Weather Underground's featured writeups by Dr. Jeff Masters (right), Bob Henson (left), Chris Burt, and other regular contributors.

Nearby

Air Quality

  Air Quality AQ Index Pollutant
Not available.

Snow Depth

Station Depth Elevation

Earthquake Activity

City Distance Mag. Time & Date
Minimum magnitude displayed is 2.5.

Coastal Water Temperatures

Place Temperature

Stations

Nearby Weather Stations

Station Location Temp. Windchill Dew Point Humidity Wind Precip. Elev Updated Type
                   

Watches & Warnings

There are currently no watches in effect.